EKVJ/STA METAR and TAF weather

Enter ICAO airport designator
Station Type Date Time Source
EKVJ METAR 2024/04/15 09:20 UTC NOAA

EKVJ 150920Z AUTO 16013KT 9999 FEW024/// 10/05 Q1003 TEST


Station Type Date Time Source
EKVJ Decoded METAR 2024/04/15 09:20 UTC NOAA

Stauning Lufthavn, Denmark (EKVJ) 56-00N 008-21E 5M
Apr 15, 2024 - 05:20 AM EDT / 2024.04.15 0920 UTC
Wind: from the SSE (160 degrees) at 15 MPH (13 KT):0
Visibility: greater than 7 mile(s):0
Sky conditions: mostly clear
Temperature: 50 F (10 C)
Dew Point: 41 F (5 C)
Relative Humidity: 71%
Pressure (altimeter): 29.62 in. Hg (1003 hPa)
ob: EKVJ 150920Z AUTO 16013KT 9999 FEW024/// 10/05 Q1003 TEST
cycle: 9

Station Type Date Time Source
EKVJ TAF UTC NOAA

Error!

Example: see airport list